createdAt,value
2023-05-01T00:00:00.145Z, 0
2023-05-01T00:02:00.115Z, 0
2023-05-01T00:04:00.237Z, 0
2023-05-01T00:06:00.175Z, 0
2023-05-01T00:08:00.117Z, 0
2023-05-01T00:10:00.125Z, 0
2023-05-01T00:12:00.142Z, 0
2023-05-01T00:14:00.078Z, 0
2023-05-01T00:16:00.119Z, 0
2023-05-01T00:18:00.098Z, 0
2023-05-01T00:20:00.076Z, 0
2023-05-01T00:22:00.041Z, 0
2023-05-01T00:24:00.071Z, 0
2023-05-01T00:26:00.052Z, 0
2023-05-01T00:28:00.019Z, 0
2023-05-01T00:30:00.059Z, 0
2023-05-01T00:32:00.119Z, 0
2023-05-01T00:34:00.065Z, 0
2023-05-01T00:36:00.064Z, 0
2023-05-01T00:38:00.070Z, 0
2023-05-01T00:40:00.061Z, 0
2023-05-01T00:42:00.092Z, 0
2023-05-01T00:44:00.113Z, 0
2023-05-01T00:46:00.180Z, 0
2023-05-01T00:48:00.166Z, 0
2023-05-01T00:50:00.145Z, 0
2023-05-01T00:52:00.126Z, 0
2023-05-01T00:54:00.130Z, 0
2023-05-01T00:56:00.160Z, 0
2023-05-01T00:58:00.114Z, 0
2023-05-01T01:00:00.141Z, 0
2023-05-01T01:02:00.149Z, 0
2023-05-01T01:04:00.117Z, 0
2023-05-01T01:06:00.226Z, 0
2023-05-01T01:08:00.116Z, 0
2023-05-01T01:10:00.105Z, 0
2023-05-01T01:12:00.137Z, 0
2023-05-01T01:14:00.099Z, 0
2023-05-01T01:16:00.051Z, 0
2023-05-01T01:18:00.120Z, 0
2023-05-01T01:20:00.049Z, 0
2023-05-01T01:22:00.049Z, 0
2023-05-01T01:24:00.121Z, 0
2023-05-01T01:26:00.025Z, 0
2023-05-01T01:28:00.018Z, 0
2023-05-01T01:30:00.077Z, 0
2023-05-01T01:32:00.068Z, 0
2023-05-01T01:34:00.067Z, 0
2023-05-01T01:36:00.057Z, 0
2023-05-01T01:38:00.047Z, 0
2023-05-01T01:40:00.064Z, 0
2023-05-01T01:42:00.068Z, 0
2023-05-01T01:44:00.100Z, 0
2023-05-01T01:46:00.116Z, 0
2023-05-01T01:48:00.135Z, 0
2023-05-01T01:50:00.088Z, 0
2023-05-01T01:52:00.100Z, 0
2023-05-01T01:54:00.130Z, 0
2023-05-01T01:56:02.385Z, 0
2023-05-01T01:58:00.133Z, 0
2023-05-01T02:00:00.123Z, 0
2023-05-01T02:02:00.111Z, 0
2023-05-01T02:04:00.189Z, 0
2023-05-01T02:06:00.150Z, 0
2023-05-01T02:08:00.143Z, 0
2023-05-01T02:10:00.138Z, 0
2023-05-01T02:12:00.141Z, 0
2023-05-01T02:14:00.106Z, 0
2023-05-01T02:16:00.109Z, 0
2023-05-01T02:18:00.087Z, 0
2023-05-01T02:20:00.048Z, 0
2023-05-01T02:22:00.060Z, 0
2023-05-01T02:24:00.062Z, 0
2023-05-01T02:26:00.038Z, 0
2023-05-01T02:28:00.036Z, 0
2023-05-01T02:30:00.057Z, 0
2023-05-01T02:32:00.169Z, 0
2023-05-01T02:34:00.036Z, 0
2023-05-01T02:36:00.053Z, 0
2023-05-01T02:38:00.042Z, 0
2023-05-01T02:40:00.061Z, 0
2023-05-01T02:42:00.098Z, 0
2023-05-01T02:44:00.121Z, 0
2023-05-01T02:46:00.148Z, 0
2023-05-01T02:48:00.224Z, 0
2023-05-01T02:50:00.151Z, 0
2023-05-01T02:52:00.099Z, 0
2023-05-01T02:54:00.161Z, 0
2023-05-01T02:56:00.115Z, 0
2023-05-01T02:58:00.128Z, 0
2023-05-01T03:00:00.155Z, 0
2023-05-01T03:02:00.119Z, 0
2023-05-01T03:04:00.181Z, 0
2023-05-01T03:06:00.196Z, 0
2023-05-01T03:08:00.108Z, 0
2023-05-01T03:10:00.131Z, 0
2023-05-01T03:12:00.115Z, 0
2023-05-01T03:14:00.064Z, 0
2023-05-01T03:16:00.175Z, 0
2023-05-01T03:18:00.275Z, 0
2023-05-01T03:20:00.051Z, 0
2023-05-01T03:22:00.066Z, 0
2023-05-01T03:24:00.150Z, 0
2023-05-01T03:26:00.058Z, 0
2023-05-01T03:28:00.032Z, 0
2023-05-01T03:30:00.052Z, 0
2023-05-01T03:32:00.160Z, 0
2023-05-01T03:34:00.081Z, 0
2023-05-01T03:36:00.055Z, 1
2023-05-01T03:38:00.087Z, 2
2023-05-01T03:40:00.061Z, 4
2023-05-01T03:42:00.105Z, 6
2023-05-01T03:44:00.108Z, 9
2023-05-01T03:46:00.121Z, 13
2023-05-01T03:48:00.168Z, 19
2023-05-01T03:50:00.139Z, 25
2023-05-01T03:52:00.124Z, 35
2023-05-01T03:54:00.173Z, 45
2023-05-01T03:56:00.155Z, 54
2023-05-01T03:58:00.102Z, 67
2023-05-01T04:00:00.160Z, 80
2023-05-01T04:02:00.160Z, 95
2023-05-01T04:04:00.234Z, 112
2023-05-01T04:06:00.165Z, 130
2023-05-01T04:08:00.113Z, 149
2023-05-01T04:10:00.137Z, 173
2023-05-01T04:12:00.130Z, 203
2023-05-01T04:14:00.110Z, 236
2023-05-01T04:16:00.141Z, 266
2023-05-01T04:18:00.148Z, 296
2023-05-01T04:20:00.074Z, 324
2023-05-01T04:22:00.061Z, 352
2023-05-01T04:24:00.086Z, 385
2023-05-01T04:26:00.038Z, 430
2023-05-01T04:28:00.041Z, 476
2023-05-01T04:30:00.430Z, 523
2023-05-01T04:32:00.170Z, 576
2023-05-01T04:34:00.038Z, 631
2023-05-01T04:36:00.064Z, 690
2023-05-01T04:38:00.032Z, 761
2023-05-01T04:40:00.031Z, 850
2023-05-01T04:42:00.089Z, 949
2023-05-01T04:44:00.145Z, 1045
2023-05-01T04:46:00.168Z, 1146
2023-05-01T04:48:00.182Z, 1310
2023-05-01T04:50:00.195Z, 1485
2023-05-01T04:52:00.106Z, 1666
2023-05-01T04:54:00.134Z, 1901
2023-05-01T04:56:00.118Z, 2086
2023-05-01T04:58:00.113Z, 2130
2023-05-01T05:00:00.215Z, 2220
2023-05-01T05:02:00.231Z, 2336
2023-05-01T05:04:00.312Z, 2492
2023-05-01T05:06:00.289Z, 2643
2023-05-01T05:08:00.122Z, 2759
2023-05-01T05:10:00.128Z, 2817
2023-05-01T05:12:00.128Z, 2847
2023-05-01T05:14:00.075Z, 2876
2023-05-01T05:16:00.114Z, 2981
2023-05-01T05:18:00.171Z, 3126
2023-05-01T05:20:00.070Z, 3202
2023-05-01T05:22:00.059Z, 3297
2023-05-01T05:24:00.085Z, 3363
2023-05-01T05:26:00.039Z, 3463
2023-05-01T05:28:00.030Z, 3612
2023-05-01T05:30:00.064Z, 3786
2023-05-01T05:32:00.148Z, 4029
2023-05-01T05:34:00.073Z, 4284
2023-05-01T05:36:00.101Z, 4537
2023-05-01T05:38:00.027Z, 4784
2023-05-01T05:40:00.026Z, 5033
2023-05-01T05:42:00.083Z, 5215
2023-05-01T05:44:00.135Z, 5338
2023-05-01T05:46:00.181Z, 5526
2023-05-01T05:48:00.304Z, 5704
2023-05-01T05:50:00.146Z, 5845
2023-05-01T05:52:00.129Z, 6301
2023-05-01T05:54:00.118Z, 6589
2023-05-01T05:56:00.103Z, 6650
2023-05-01T05:58:00.131Z, 6745
2023-05-01T06:00:00.158Z, 7301
2023-05-01T06:02:00.244Z, 7460
2023-05-01T06:04:00.132Z, 7447
2023-05-01T06:06:00.300Z, 7799
2023-05-01T06:08:00.136Z, 8162
2023-05-01T06:10:00.143Z, 8357
2023-05-01T06:12:00.148Z, 8488
2023-05-01T06:14:00.108Z, 8450
2023-05-01T06:16:00.107Z, 8230
2023-05-01T06:18:00.184Z, 7962
2023-05-01T06:20:00.200Z, 7749
2023-05-01T06:22:00.089Z, 7627
2023-05-01T06:24:00.067Z, 7578
2023-05-01T06:26:00.040Z, 7632
2023-05-01T06:28:00.040Z, 7765
2023-05-01T06:30:00.077Z, 7929
2023-05-01T06:32:00.226Z, 8109
2023-05-01T06:34:00.059Z, 8487
2023-05-01T06:36:00.180Z, 9024
2023-05-01T06:38:00.131Z, 9800
2023-05-01T06:40:00.060Z, 10743
2023-05-01T06:42:00.092Z, 11650
2023-05-01T06:44:00.109Z, 12489
2023-05-01T06:46:00.119Z, 13143
2023-05-01T06:48:00.176Z, 13693
2023-05-01T06:50:00.549Z, 15805
2023-05-01T06:52:00.107Z, 15125
2023-05-01T06:54:00.129Z, 14945
2023-05-01T06:56:00.126Z, 15614
2023-05-01T06:58:02.634Z, 15793
2023-05-01T07:00:00.267Z, 16576
2023-05-01T07:02:00.159Z, 18910
2023-05-01T07:04:00.147Z, 18603
2023-05-01T07:06:00.221Z, 18136
2023-05-01T07:08:01.537Z, 19315
2023-05-01T07:10:00.498Z, 19967
2023-05-01T07:12:00.108Z, 19777
2023-05-01T07:14:00.079Z, 19716
2023-05-01T07:16:00.081Z, 22699
2023-05-01T07:18:00.167Z, 25690
2023-05-01T07:20:00.076Z, 29526
2023-05-01T07:22:00.066Z, 33031
2023-05-01T07:24:00.080Z, 35880
2023-05-01T07:26:00.088Z, 39511
2023-05-01T07:28:00.042Z, 37385
2023-05-01T07:30:00.054Z, 37970
2023-05-01T07:32:00.132Z, 40584
2023-05-01T07:34:00.049Z, 42494
2023-05-01T07:36:00.076Z, 23663
2023-05-01T07:38:00.046Z, 31665
2023-05-01T07:40:00.068Z, 29254
2023-05-01T07:42:00.109Z, 33787
2023-05-01T07:44:00.172Z, 40346
2023-05-01T07:46:00.234Z, 44726
2023-05-01T07:48:00.230Z, 46367
2023-05-01T07:50:00.186Z, 47559
2023-05-01T07:52:00.107Z, 46935
2023-05-01T07:54:00.136Z, 44434
2023-05-01T07:56:00.109Z, 47275
2023-05-01T07:58:00.141Z, 48157
2023-05-01T08:00:00.229Z, 48074
2023-05-01T08:02:00.164Z, 45909
2023-05-01T08:04:00.294Z, 46763
2023-05-01T08:06:00.219Z, 47508
2023-05-01T08:08:00.141Z, 54305
2023-05-01T08:10:00.462Z, 38052
2023-05-01T08:12:00.136Z, 36570
2023-05-01T08:14:00.094Z, 51437
2023-05-01T08:16:00.132Z, 43295
2023-05-01T08:18:00.216Z, 46359
2023-05-01T08:20:00.069Z, 53785
2023-05-01T08:22:00.055Z, 43455
2023-05-01T08:24:00.090Z, 42934
2023-05-01T08:26:00.055Z, 44480
2023-05-01T08:28:00.038Z, 47564
2023-05-01T08:30:00.105Z, 53596
2023-05-01T08:32:00.138Z, 43455
2023-05-01T08:34:00.061Z, 35521
2023-05-01T08:36:00.142Z, 54612
2023-05-01T08:38:00.037Z, 54612
2023-05-01T08:40:00.060Z, 38833
2023-05-01T08:42:00.078Z, 31438
2023-05-01T08:44:00.132Z, 34237
2023-05-01T08:46:00.159Z, 32908
2023-05-01T08:48:00.191Z, 33754
2023-05-01T08:50:00.173Z, 54606
2023-05-01T08:52:00.141Z, 43189
2023-05-01T08:54:00.140Z, 42368
2023-05-01T08:56:00.129Z, 48375
2023-05-01T08:58:00.121Z, 54612
2023-05-01T09:00:00.189Z, 54612
2023-05-01T09:02:00.254Z, 54612
2023-05-01T09:04:00.180Z, 49962
2023-05-01T09:06:00.194Z, 54612
2023-05-01T09:08:00.119Z, 54612
2023-05-01T09:10:00.171Z, 40708
2023-05-01T09:12:00.127Z, 42186
2023-05-01T09:14:00.085Z, 34639
2023-05-01T09:16:00.081Z, 35307
2023-05-01T09:18:02.991Z, 36879
2023-05-01T09:20:00.056Z, 48001
2023-05-01T09:22:00.053Z, 54612
2023-05-01T09:24:00.114Z, 43182
2023-05-01T09:26:00.055Z, 49647
2023-05-01T09:28:00.024Z, 54612
2023-05-01T09:30:00.094Z, 53402
2023-05-01T09:32:00.103Z, 41325
2023-05-01T09:34:00.060Z, 49000
2023-05-01T09:36:00.116Z, 38210
2023-05-01T09:38:00.033Z, 43196
2023-05-01T09:40:00.024Z, 49670
2023-05-01T09:42:00.080Z, 54612
2023-05-01T09:44:00.142Z, 54612
2023-05-01T09:46:00.231Z, 54612
2023-05-01T09:48:00.227Z, 54612
2023-05-01T09:50:00.242Z, 54612
2023-05-01T09:52:00.112Z, 54612
2023-05-01T09:54:00.175Z, 54612
2023-05-01T09:56:00.097Z, 54612
2023-05-01T09:58:00.125Z, 54612
2023-05-01T10:00:00.185Z, 54612
2023-05-01T10:02:00.225Z, 54612
2023-05-01T10:04:00.156Z, 54612
2023-05-01T10:06:00.224Z, 54612
2023-05-01T10:08:00.112Z, 54612
2023-05-01T10:10:01.696Z, 14729
2023-05-01T10:12:00.125Z, 12856
2023-05-01T10:14:00.150Z, 15104
2023-05-01T10:16:00.089Z, 17651
2023-05-01T10:18:00.120Z, 17065
2023-05-01T10:20:00.173Z, 14041
2023-05-01T10:22:00.057Z, 12955
2023-05-01T10:24:00.064Z, 15334
2023-05-01T10:26:00.825Z, 19657
2023-05-01T10:28:00.051Z, 22951
2023-05-01T10:30:00.065Z, 21380
2023-05-01T10:32:00.140Z, 20842
2023-05-01T10:34:00.049Z, 20116
2023-05-01T10:36:00.054Z, 19841
2023-05-01T10:38:00.066Z, 19519
2023-05-01T10:40:00.029Z, 19520
2023-05-01T10:42:00.159Z, 19671
2023-05-01T10:44:00.100Z, 19520
2023-05-01T10:46:00.195Z, 19495
2023-05-01T10:48:00.188Z, 19587
2023-05-01T10:50:00.127Z, 19854
2023-05-01T10:52:00.120Z, 20209
2023-05-01T10:54:00.139Z, 20923
2023-05-01T10:56:00.122Z, 22365
2023-05-01T10:58:00.171Z, 24403
2023-05-01T11:00:00.192Z, 30790
2023-05-01T11:02:00.208Z, 30167
2023-05-01T11:04:00.101Z, 31408
2023-05-01T11:06:00.566Z, 31811
2023-05-01T11:08:00.166Z, 31294
2023-05-01T11:10:00.101Z, 28190
2023-05-01T11:12:00.141Z, 28323
2023-05-01T11:14:00.091Z, 28198
2023-05-01T11:16:00.123Z, 27669
2023-05-01T11:18:00.126Z, 25977
2023-05-01T11:20:00.067Z, 24361
2023-05-01T11:22:00.094Z, 23787
2023-05-01T11:24:00.096Z, 23260
2023-05-01T11:26:00.047Z, 22503
2023-05-01T11:28:00.048Z, 21054
2023-05-01T11:30:00.124Z, 19471
2023-05-01T11:32:00.117Z, 19503
2023-05-01T11:34:00.063Z, 19878
2023-05-01T11:36:00.107Z, 19791
2023-05-01T11:38:00.028Z, 18501
2023-05-01T11:40:00.069Z, 18965
2023-05-01T11:42:00.137Z, 18804
2023-05-01T11:44:00.109Z, 17337
2023-05-01T11:46:00.173Z, 17344
2023-05-01T11:48:02.992Z, 15929
2023-05-01T11:50:00.147Z, 15461
2023-05-01T11:52:00.135Z, 15510
2023-05-01T11:54:00.127Z, 15567
2023-05-01T11:56:00.156Z, 15655
2023-05-01T11:58:00.174Z, 18623
2023-05-01T12:00:00.136Z, 20920
2023-05-01T12:02:00.203Z, 22129
2023-05-01T12:04:00.226Z, 24009
2023-05-01T12:06:00.214Z, 24790
2023-05-01T12:08:00.132Z, 25318
2023-05-01T12:10:00.153Z, 24729
2023-05-01T12:12:00.129Z, 23445
2023-05-01T12:14:00.102Z, 23906
2023-05-01T12:16:00.095Z, 26643
2023-05-01T12:18:00.208Z, 29230
2023-05-01T12:20:00.072Z, 28443
2023-05-01T12:22:00.063Z, 27800
2023-05-01T12:24:00.123Z, 31020
2023-05-01T12:26:00.054Z, 34125
2023-05-01T12:28:00.054Z, 34493
2023-05-01T12:30:00.161Z, 29508
2023-05-01T12:32:00.109Z, 29167
2023-05-01T12:34:00.109Z, 29650
2023-05-01T12:36:00.125Z, 35170
2023-05-01T12:38:00.062Z, 36074
2023-05-01T12:40:00.086Z, 30888
2023-05-01T12:42:00.098Z, 22571
2023-05-01T12:44:00.102Z, 20272
2023-05-01T12:46:00.169Z, 18373
2023-05-01T12:48:00.165Z, 16274
2023-05-01T12:50:00.296Z, 14760
2023-05-01T12:52:00.125Z, 13630
2023-05-01T12:54:00.117Z, 12603
2023-05-01T12:56:00.105Z, 11641
2023-05-01T12:58:00.117Z, 10772
2023-05-01T13:00:00.372Z, 9897
2023-05-01T13:02:00.198Z, 9039
2023-05-01T13:04:00.129Z, 8739
2023-05-01T13:06:00.203Z, 8431
2023-05-01T13:08:00.125Z, 8017
2023-05-01T13:10:00.605Z, 7703
2023-05-01T13:12:00.102Z, 7505
2023-05-01T13:14:00.104Z, 7232
2023-05-01T13:16:00.102Z, 6953
2023-05-01T13:18:00.118Z, 6937
2023-05-01T13:20:00.469Z, 6627
2023-05-01T13:22:00.084Z, 6334
2023-05-01T13:24:00.081Z, 6145
2023-05-01T13:26:00.025Z, 5866
2023-05-01T13:28:00.047Z, 5650
2023-05-01T13:30:00.483Z, 5581
2023-05-01T13:32:00.090Z, 5549
2023-05-01T13:34:00.057Z, 5467
2023-05-01T13:36:00.836Z, 5370
2023-05-01T13:38:00.061Z, 5383
2023-05-01T13:40:00.418Z, 5499
2023-05-01T13:42:00.074Z, 5694
2023-05-01T13:44:00.139Z, 5970
2023-05-01T13:46:00.149Z, 6195
2023-05-01T13:48:00.179Z, 6132
2023-05-01T13:50:00.592Z, 6020
2023-05-01T13:52:00.108Z, 5965
2023-05-01T13:54:00.146Z, 5985
2023-05-01T13:56:00.127Z, 6037
2023-05-01T13:58:00.164Z, 6050
2023-05-01T14:00:00.126Z, 5988
2023-05-01T14:02:00.109Z, 6255
2023-05-01T14:04:00.156Z, 6450
2023-05-01T14:06:00.137Z, 6618
2023-05-01T14:08:00.113Z, 7083
2023-05-01T14:10:00.183Z, 7798
2023-05-01T14:12:00.120Z, 8467
2023-05-01T14:14:00.150Z, 9085
2023-05-01T14:16:00.064Z, 9596
2023-05-01T14:18:00.146Z, 10056
2023-05-01T14:20:00.069Z, 10894
2023-05-01T14:22:00.071Z, 12363
2023-05-01T14:24:00.077Z, 14112
2023-05-01T14:26:00.069Z, 16000
2023-05-01T14:28:00.062Z, 18679
2023-05-01T14:30:00.061Z, 20939
2023-05-01T14:32:00.058Z, 21305
2023-05-01T14:34:00.065Z, 21417
2023-05-01T14:36:00.057Z, 20766
2023-05-01T14:38:00.055Z, 18719
2023-05-01T14:40:00.051Z, 16474
2023-05-01T14:42:00.053Z, 15364
2023-05-01T14:44:00.096Z, 15315
2023-05-01T14:46:00.170Z, 15513
2023-05-01T14:48:00.168Z, 14775
2023-05-01T14:50:00.120Z, 13754
2023-05-01T14:52:00.098Z, 13467
2023-05-01T14:54:00.160Z, 13426
2023-05-01T14:56:00.121Z, 13247
2023-05-01T14:58:00.130Z, 12880
2023-05-01T15:00:00.139Z, 12702
2023-05-01T15:02:00.125Z, 12670
2023-05-01T15:04:01.907Z, 12451
2023-05-01T15:06:00.194Z, 11930
2023-05-01T15:08:00.128Z, 11303
2023-05-01T15:10:00.252Z, 10635
2023-05-01T15:12:00.127Z, 10059
2023-05-01T15:14:00.118Z, 9662
2023-05-01T15:16:00.087Z, 9702
2023-05-01T15:18:00.166Z, 9766
2023-05-01T15:20:00.047Z, 9615
2023-05-01T15:22:00.057Z, 9339
2023-05-01T15:24:00.066Z, 9020
2023-05-01T15:26:00.067Z, 8733
2023-05-01T15:28:00.076Z, 8430
2023-05-01T15:30:00.133Z, 8139
2023-05-01T15:32:11.362Z, 7835
2023-05-01T15:34:00.061Z, 7527
2023-05-01T15:36:00.062Z, 7234
2023-05-01T15:38:00.068Z, 6936
2023-05-01T15:40:00.161Z, 6701
2023-05-01T15:42:00.075Z, 6568
2023-05-01T15:44:00.120Z, 6615
2023-05-01T15:46:00.268Z, 6812
2023-05-01T15:48:00.277Z, 7031
2023-05-01T15:50:00.598Z, 7410
2023-05-01T15:52:00.120Z, 7684
2023-05-01T15:54:00.141Z, 7795
2023-05-01T15:56:00.155Z, 7929
2023-05-01T15:58:00.126Z, 8210
2023-05-01T16:00:00.469Z, 8758
2023-05-01T16:02:00.116Z, 9407
2023-05-01T16:04:00.236Z, 9964
2023-05-01T16:06:00.185Z, 10346
2023-05-01T16:08:00.233Z, 10584
2023-05-01T16:10:00.560Z, 10845
2023-05-01T16:12:00.132Z, 11070
2023-05-01T16:14:00.102Z, 11150
2023-05-01T16:16:00.106Z, 11196
2023-05-01T16:18:00.169Z, 11261
2023-05-01T16:20:00.303Z, 11264
2023-05-01T16:22:00.068Z, 11283
2023-05-01T16:24:00.076Z, 11312
2023-05-01T16:26:00.090Z, 11338
2023-05-01T16:28:00.065Z, 11583
2023-05-01T16:30:00.537Z, 11761
2023-05-01T16:32:00.139Z, 11400
2023-05-01T16:34:00.052Z, 10765
2023-05-01T16:36:00.089Z, 10323
2023-05-01T16:38:00.058Z, 9916
2023-05-01T16:40:00.486Z, 9406
2023-05-01T16:42:00.082Z, 8895
2023-05-01T16:44:00.168Z, 8694
2023-05-01T16:46:00.154Z, 8951
2023-05-01T16:48:00.215Z, 9093
2023-05-01T16:50:00.696Z, 8739
2023-05-01T16:52:01.463Z, 8475
2023-05-01T16:54:00.107Z, 8272
2023-05-01T16:56:00.135Z, 7838
2023-05-01T16:58:00.143Z, 7430
2023-05-01T17:00:00.495Z, 7145
2023-05-01T17:02:00.170Z, 7065
2023-05-01T17:04:00.278Z, 7197
2023-05-01T17:06:00.268Z, 7384
2023-05-01T17:08:00.121Z, 7510
2023-05-01T17:10:00.312Z, 7237
2023-05-01T17:12:00.095Z, 6880
2023-05-01T17:14:00.104Z, 6527
2023-05-01T17:16:00.099Z, 5879
2023-05-01T17:18:00.144Z, 5317
2023-05-01T17:20:00.307Z, 4796
2023-05-01T17:22:00.082Z, 4328
2023-05-01T17:24:00.055Z, 3840
2023-05-01T17:26:00.054Z, 3468
2023-05-01T17:28:00.058Z, 3128
2023-05-01T17:30:00.238Z, 2853
2023-05-01T17:32:00.174Z, 2722
2023-05-01T17:34:00.038Z, 2675
2023-05-01T17:36:00.055Z, 2622
2023-05-01T17:38:00.082Z, 2530
2023-05-01T17:40:00.274Z, 2454
2023-05-01T17:42:00.069Z, 2461
2023-05-01T17:44:00.130Z, 2485
2023-05-01T17:46:00.138Z, 2428
2023-05-01T17:48:00.201Z, 2201
2023-05-01T17:50:00.512Z, 1900
2023-05-01T17:52:00.133Z, 1721
2023-05-01T17:54:00.147Z, 1581
2023-05-01T17:56:00.146Z, 1415
2023-05-01T17:58:00.151Z, 1232
2023-05-01T18:00:00.488Z, 1089
2023-05-01T18:02:00.251Z, 970
2023-05-01T18:04:00.384Z, 847
2023-05-01T18:06:00.186Z, 727
2023-05-01T18:08:00.134Z, 640
2023-05-01T18:10:00.390Z, 583
2023-05-01T18:12:00.136Z, 549
2023-05-01T18:14:00.061Z, 495
2023-05-01T18:16:00.116Z, 446
2023-05-01T18:18:00.129Z, 411
2023-05-01T18:20:00.458Z, 385
2023-05-01T18:22:00.090Z, 370
2023-05-01T18:24:00.058Z, 368
2023-05-01T18:26:00.064Z, 357
2023-05-01T18:28:00.045Z, 346
2023-05-01T18:30:00.341Z, 321
2023-05-01T18:32:00.110Z, 289
2023-05-01T18:34:00.057Z, 254
2023-05-01T18:36:00.103Z, 218
2023-05-01T18:38:00.065Z, 186
2023-05-01T18:40:00.390Z, 164
2023-05-01T18:42:00.107Z, 145
2023-05-01T18:44:00.103Z, 125
2023-05-01T18:46:00.242Z, 107
2023-05-01T18:48:00.165Z, 94
2023-05-01T18:50:00.296Z, 81
2023-05-01T18:52:00.129Z, 70
2023-05-01T18:54:00.132Z, 60
2023-05-01T18:56:00.145Z, 53
2023-05-01T18:58:00.169Z, 42
2023-05-01T19:00:00.372Z, 33
2023-05-01T19:02:00.177Z, 25
2023-05-01T19:04:00.145Z, 17
2023-05-01T19:06:00.227Z, 12
2023-05-01T19:08:00.142Z, 9
2023-05-01T19:10:00.466Z, 6
2023-05-01T19:12:00.134Z, 5
2023-05-01T19:14:00.123Z, 3
2023-05-01T19:16:00.185Z, 2
2023-05-01T19:18:00.189Z, 1
2023-05-01T19:20:00.318Z, 0
2023-05-01T19:22:00.057Z, 0
2023-05-01T19:24:00.111Z, 0
2023-05-01T19:26:00.051Z, 0
2023-05-01T19:28:00.050Z, 0
2023-05-01T19:30:00.582Z, 0
2023-05-01T19:32:00.133Z, 0
2023-05-01T19:34:00.061Z, 0
2023-05-01T19:36:00.061Z, 0
2023-05-01T19:38:00.049Z, 0
2023-05-01T19:40:00.310Z, 0
2023-05-01T19:42:00.083Z, 0
2023-05-01T19:44:00.130Z, 0
2023-05-01T19:46:00.121Z, 0
2023-05-01T19:48:00.296Z, 0
2023-05-01T19:50:00.486Z, 0
2023-05-01T19:52:00.099Z, 0
2023-05-01T19:54:00.161Z, 0
2023-05-01T19:56:00.170Z, 0
2023-05-01T19:58:00.128Z, 0
2023-05-01T20:00:00.535Z, 0
2023-05-01T20:02:01.467Z, 0
2023-05-01T20:04:00.186Z, 0
2023-05-01T20:06:00.161Z, 0
2023-05-01T20:08:00.150Z, 0
2023-05-01T20:10:00.352Z, 0
2023-05-01T20:12:00.170Z, 0
2023-05-01T20:14:00.102Z, 0
2023-05-01T20:16:00.085Z, 0
2023-05-01T20:18:00.166Z, 0
2023-05-01T20:20:00.266Z, 0
2023-05-01T20:22:00.121Z, 0
2023-05-01T20:24:00.097Z, 0
2023-05-01T20:26:00.059Z, 0
2023-05-01T20:28:00.062Z, 0
2023-05-01T20:30:00.335Z, 0
2023-05-01T20:32:00.067Z, 0
2023-05-01T20:34:00.123Z, 0
2023-05-01T20:36:00.063Z, 0
2023-05-01T20:38:00.052Z, 0
2023-05-01T20:40:00.383Z, 0
2023-05-01T20:42:00.083Z, 0
2023-05-01T20:44:00.132Z, 0
2023-05-01T20:46:00.130Z, 0
2023-05-01T20:48:00.203Z, 0
2023-05-01T20:50:00.499Z, 0
2023-05-01T20:52:00.103Z, 0
2023-05-01T20:54:00.135Z, 0
2023-05-01T20:56:00.145Z, 0
2023-05-01T20:58:00.124Z, 0
2023-05-01T21:00:00.703Z, 0
2023-05-01T21:02:00.192Z, 0
2023-05-01T21:04:00.294Z, 0
2023-05-01T21:06:00.222Z, 0
2023-05-01T21:08:00.128Z, 0
2023-05-01T21:10:00.521Z, 0
2023-05-01T21:12:00.142Z, 0
2023-05-01T21:14:00.065Z, 0
2023-05-01T21:16:00.060Z, 0
2023-05-01T21:18:00.142Z, 0
2023-05-01T21:20:00.324Z, 0
2023-05-01T21:22:00.068Z, 0
2023-05-01T21:24:00.073Z, 0
2023-05-01T21:26:00.080Z, 0
2023-05-01T21:28:00.067Z, 0
2023-05-01T21:30:00.509Z, 0
2023-05-01T21:32:00.151Z, 0
2023-05-01T21:34:00.031Z, 0
2023-05-01T21:36:00.059Z, 0
2023-05-01T21:38:00.045Z, 0
2023-05-01T21:40:00.157Z, 0
2023-05-01T21:42:00.064Z, 0
2023-05-01T21:44:00.136Z, 0
2023-05-01T21:46:00.115Z, 0
2023-05-01T21:48:00.184Z, 0
2023-05-01T21:50:00.439Z, 0
2023-05-01T21:52:00.127Z, 0
2023-05-01T21:54:00.128Z, 0
2023-05-01T21:56:00.149Z, 0
2023-05-01T21:58:00.144Z, 0
2023-05-01T22:00:00.409Z, 0
2023-05-01T22:02:00.123Z, 0
2023-05-01T22:04:00.196Z, 0
2023-05-01T22:06:00.235Z, 0
2023-05-01T22:08:00.100Z, 0
2023-05-01T22:10:00.563Z, 0
2023-05-01T22:12:00.174Z, 0
2023-05-01T22:14:00.066Z, 0
2023-05-01T22:16:00.073Z, 0
2023-05-01T22:18:00.093Z, 0
2023-05-01T22:20:00.209Z, 0
2023-05-01T22:22:00.051Z, 0
2023-05-01T22:24:00.051Z, 0
2023-05-01T22:26:00.105Z, 0
2023-05-01T22:28:00.022Z, 0
2023-05-01T22:30:00.367Z, 0
2023-05-01T22:32:00.133Z, 0
2023-05-01T22:34:00.062Z, 0
2023-05-01T22:36:00.071Z, 0
2023-05-01T22:38:00.064Z, 0
2023-05-01T22:40:00.352Z, 0
2023-05-01T22:42:00.124Z, 0
2023-05-01T22:44:00.141Z, 0
2023-05-01T22:46:00.127Z, 0
2023-05-01T22:48:00.272Z, 0
2023-05-01T22:50:00.387Z, 0
2023-05-01T22:52:00.137Z, 0
2023-05-01T22:54:00.113Z, 0
2023-05-01T22:56:00.131Z, 0
2023-05-01T22:58:00.138Z, 0
2023-05-01T23:00:00.608Z, 0
2023-05-01T23:02:00.260Z, 0
2023-05-01T23:04:00.278Z, 0
2023-05-01T23:06:00.178Z, 0
2023-05-01T23:08:00.147Z, 0
2023-05-01T23:10:00.278Z, 0
2023-05-01T23:12:00.131Z, 0
2023-05-01T23:14:00.062Z, 0
2023-05-01T23:16:00.124Z, 0
2023-05-01T23:18:00.102Z, 0
2023-05-01T23:20:00.413Z, 0
2023-05-01T23:22:00.057Z, 0
2023-05-01T23:24:00.064Z, 0
2023-05-01T23:26:00.036Z, 0
2023-05-01T23:28:00.021Z, 0
2023-05-01T23:30:00.288Z, 0
2023-05-01T23:32:00.143Z, 0
2023-05-01T23:34:00.067Z, 0
2023-05-01T23:36:00.062Z, 0
2023-05-01T23:38:00.050Z, 0
2023-05-01T23:40:00.378Z, 0
2023-05-01T23:42:00.091Z, 0
2023-05-01T23:44:00.093Z, 0
2023-05-01T23:46:00.112Z, 0
2023-05-01T23:48:00.203Z, 0
2023-05-01T23:50:00.407Z, 0
2023-05-01T23:52:00.105Z, 0
2023-05-01T23:54:00.137Z, 0
2023-05-01T23:56:00.126Z, 0
2023-05-01T23:58:00.118Z, 0
